Time;durP1;ratioP1;P1;durP2;ratioP2;P2;SDS_P1;SDS_P2;PMS_P1;PMS_P2;Temp;Humidity;BMP_temperature;BMP_pressure;BME280_temperature;BME280_humidity;BME280_pressure;Samples;Min_cycle;Max_cycle;Signal;HPM_P1;HPM_P2
2022/01/13 00:01:37;;;;;;;26.57;11.57;;;;;;;;;;5052979;28;20029;-71
2022/01/13 00:04:02;;;;;;;23.25;12.48;;;;;;;;;;5061843;28;20031;-74
2022/01/13 00:06:28;;;;;;;24.63;11.07;;;;;;;;;;5050336;28;20111;-74
2022/01/13 00:08:53;;;;;;;24.30;10.60;;;;;;;;;;5067618;28;20462;-74
2022/01/13 00:11:19;;;;;;;26.00;11.57;;;;;;;;;;5049239;28;20022;-73
2022/01/13 00:13:52;;;;;;;25.30;9.93;;;;;;;;;;5051364;28;20037;-73
2022/01/13 00:17:07;;;;;;;19.70;9.48;;;;;;;;;;5047724;28;20024;-73
2022/01/13 00:21:41;;;;;;;28.75;10.70;;;;;;;;;;5038595;28;20056;-72
2022/01/13 00:24:11;;;;;;;20.98;10.40;;;;;;;;;;5029383;28;20046;-71
2022/01/13 00:26:37;;;;;;;27.15;12.65;;;;;;;;;;5047350;28;20032;-71
2022/01/13 00:29:03;;;;;;;20.17;10.67;;;;;;;;;;5045872;28;20041;-71
2022/01/13 00:31:33;;;;;;;34.45;14.95;;;;;;;;;;5052413;28;20110;-73
2022/01/13 00:34:02;;;;;;;24.45;11.75;;;;;;;;;;5050197;28;20458;-74
2022/01/13 00:36:29;;;;;;;28.48;11.23;;;;;;;;;;5050737;28;20090;-75
2022/01/13 00:38:55;;;;;;;23.13;11.32;;;;;;;;;;5049247;28;20103;-73
2022/01/13 00:41:23;;;;;;;22.38;10.13;;;;;;;;;;5047574;28;20385;-73
2022/01/13 00:43:48;;;;;;;21.23;10.20;;;;;;;;;;5055261;28;20466;-72
2022/01/13 00:46:22;;;;;;;22.87;9.93;;;;;;;;;;5040808;28;20033;-73
2022/01/13 00:48:49;;;;;;;23.83;9.55;;;;;;;;;;5040591;28;20086;-70
2022/01/13 00:51:15;;;;;;;;;;;;;;;;;;5040474;28;20038;-72
2022/01/13 00:53:40;;;;;;;22.85;10.60;;;;;;;;;;5040637;28;19939;-72
2022/01/13 00:56:07;;;;;;;20.83;9.80;;;;;;;;;;5052582;28;20021;-71
2022/01/13 00:58:34;;;;;;;24.05;10.95;;;;;;;;;;5050508;28;20539;-72
2022/01/13 01:01:00;;;;;;;24.00;10.38;;;;;;;;;;5044005;28;20040;-75
2022/01/13 01:03:26;;;;;;;;;;;;;;;;;;5048016;28;20029;-73
2022/01/13 01:05:51;;;;;;;22.92;10.98;;;;;;;;;;5047057;28;19917;-74
2022/01/13 01:08:17;;;;;;;20.13;9.23;;;;;;;;;;5065920;28;20037;-73
2022/01/13 01:10:46;;;;;;;24.85;10.45;;;;;;;;;;5042988;28;20105;-73
2022/01/13 01:13:18;;;;;;;22.27;10.93;;;;;;;;;;5039523;28;20127;-70
2022/01/13 01:15:48;;;;;;;24.35;10.30;;;;;;;;;;5042747;28;20033;-71
2022/01/13 01:21:04;;;;;;;19.95;9.35;;;;;;;;;;5037448;28;20061;-70
2022/01/13 01:23:33;;;;;;;24.80;11.30;;;;;;;;;;5041890;28;20045;-71
2022/01/13 01:26:05;;;;;;;23.83;10.23;;;;;;;;;;5062331;28;20029;-71
2022/01/13 01:28:41;;;;;;;25.20;9.73;;;;;;;;;;5051192;28;20045;-71
2022/01/13 01:31:06;;;;;;;20.73;9.30;;;;;;;;;;5042859;28;20028;-73
2022/01/13 01:33:34;;;;;;;17.60;9.27;;;;;;;;;;5041417;28;20503;-73
2022/01/13 01:36:00;;;;;;;28.52;9.35;;;;;;;;;;5038055;28;20025;-73
2022/01/13 01:38:25;;;;;;;24.50;10.77;;;;;;;;;;5042504;28;20026;-73
2022/01/13 01:40:50;;;;;;;22.60;10.37;;;;;;;;;;5042763;28;20045;-73
2022/01/13 01:43:16;;;;;;;23.37;9.90;;;;;;;;;;5043641;28;20041;-71
2022/01/13 01:45:47;;;;;;;20.77;9.43;;;;;;;;;;5039812;28;20478;-70
2022/01/13 01:48:18;;;;;;;25.63;9.93;;;;;;;;;;5040864;28;20041;-71
2022/01/13 01:50:53;;;;;;;23.42;9.40;;;;;;;;;;5039425;28;20033;-70
2022/01/13 01:53:18;;;;;;;21.52;9.13;;;;;;;;;;5045046;28;20041;-70
2022/01/13 01:55:44;;;;;;;23.27;9.23;;;;;;;;;;5040522;28;20095;-70
2022/01/13 01:58:10;;;;;;;18.67;8.33;;;;;;;;;;5029817;28;20045;-71
2022/01/13 02:00:36;;;;;;;20.73;8.50;;;;;;;;;;5040290;28;20378;-71
2022/01/13 02:03:01;;;;;;;22.70;7.73;;;;;;;;;;5038874;28;20037;-71
2022/01/13 02:05:26;;;;;;;14.77;7.73;;;;;;;;;;5044595;28;20041;-71
2022/01/13 02:07:52;;;;;;;19.10;8.90;;;;;;;;;;5049235;28;20029;-71
2022/01/13 02:10:18;;;;;;;19.23;8.70;;;;;;;;;;5050146;28;20029;-71
2022/01/13 02:12:47;;;;;;;24.77;8.27;;;;;;;;;;5034754;28;20038;-70
2022/01/13 02:15:28;;;;;;;18.23;7.90;;;;;;;;;;5046864;28;20265;-70
2022/01/13 02:17:54;;;;;;;23.27;9.52;;;;;;;;;;5038055;28;20091;-70
2022/01/13 02:20:20;;;;;;;15.13;7.07;;;;;;;;;;5043362;28;20032;-71
2022/01/13 02:22:45;;;;;;;21.73;8.40;;;;;;;;;;5035330;28;20120;-70
2022/01/13 02:25:15;;;;;;;21.27;9.00;;;;;;;;;;5051183;28;20036;-70
2022/01/13 02:27:41;;;;;;;18.33;8.15;;;;;;;;;;5043458;28;20043;-71
2022/01/13 02:30:08;;;;;;;19.23;7.88;;;;;;;;;;5036505;28;20031;-71
2022/01/13 02:32:34;;;;;;;;;;;;;;;;;;5037529;28;20125;-71
2022/01/13 02:34:59;;;;;;;16.83;6.15;;;;;;;;;;5040635;28;20015;-71
2022/01/13 02:37:24;;;;;;;13.97;7.47;;;;;;;;;;5034446;28;20030;-71
2022/01/13 02:39:50;;;;;;;17.37;7.10;;;;;;;;;;5046264;28;20033;-70
2022/01/13 02:42:15;;;;;;;16.57;7.53;;;;;;;;;;5034654;28;20405;-71
2022/01/13 02:44:50;;;;;;;12.73;6.37;;;;;;;;;;5039798;28;20470;-70
2022/01/13 02:47:36;;;;;;;14.45;6.43;;;;;;;;;;5042847;28;20044;-70
2022/01/13 02:50:03;;;;;;;14.77;6.47;;;;;;;;;;5032218;28;20045;-71
2022/01/13 02:52:29;;;;;;;18.10;6.78;;;;;;;;;;5042212;28;20055;-70
2022/01/13 02:54:54;;;;;;;19.63;6.37;;;;;;;;;;5043848;28;20037;-70
2022/01/13 02:57:20;;;;;;;14.03;6.83;;;;;;;;;;5049164;28;20082;-70
2022/01/13 02:59:45;;;;;;;19.60;7.13;;;;;;;;;;5040119;28;20064;-70
2022/01/13 03:02:10;;;;;;;16.43;6.50;;;;;;;;;;5040439;28;20041;-70
2022/01/13 03:04:36;;;;;;;21.20;7.90;;;;;;;;;;5038839;28;20040;-71
2022/01/13 03:07:01;;;;;;;16.17;7.63;;;;;;;;;;5041495;28;20036;-72
2022/01/13 03:09:27;;;;;;;13.50;6.40;;;;;;;;;;5039992;28;20045;-71
2022/01/13 03:11:52;;;;;;;16.90;6.97;;;;;;;;;;5038929;28;20040;-70
2022/01/13 03:14:17;;;;;;;19.77;6.97;;;;;;;;;;5034084;28;20030;-70
2022/01/13 03:16:44;;;;;;;14.30;7.30;;;;;;;;;;5045486;28;20034;-71
2022/01/13 03:19:10;;;;;;;14.50;7.30;;;;;;;;;;5035192;28;20112;-71
2022/01/13 03:21:37;;;;;;;15.02;6.88;;;;;;;;;;5034897;28;20034;-70
2022/01/13 03:24:07;;;;;;;17.25;6.55;;;;;;;;;;5034326;28;20045;-71
2022/01/13 03:26:32;;;;;;;13.80;6.95;;;;;;;;;;5042363;28;20042;-71
2022/01/13 03:29:31;;;;;;;17.00;7.47;;;;;;;;;;5038233;28;20090;-72
2022/01/13 03:31:50;;;;;;;21.83;6.63;;;;;;;;;;5039815;28;20049;-71
2022/01/13 03:34:17;;;;;;;14.43;6.53;;;;;;;;;;5050506;28;20082;-70
2022/01/13 03:36:43;;;;;;;14.23;7.13;;;;;;;;;;5039401;28;20084;-70
2022/01/13 03:39:10;;;;;;;14.45;5.70;;;;;;;;;;5044328;28;20542;-70
2022/01/13 03:41:37;;;;;;;13.02;5.85;;;;;;;;;;5046733;28;20086;-70
2022/01/13 03:44:06;;;;;;;15.02;6.75;;;;;;;;;;5052160;28;20045;-70
2022/01/13 03:46:37;;;;;;;16.33;5.90;;;;;;;;;;5046551;28;20533;-71
2022/01/13 03:49:03;;;;;;;12.65;5.38;;;;;;;;;;5051850;28;20500;-71
2022/01/13 03:52:00;;;;;;;11.68;4.80;;;;;;;;;;5037560;28;20041;-70
2022/01/13 03:54:31;;;;;;;10.80;5.18;;;;;;;;;;5037249;28;20041;-71
2022/01/13 03:57:34;;;;;;;12.98;5.22;;;;;;;;;;5033329;28;20401;-71
2022/01/13 04:00:41;;;;;;;13.13;5.95;;;;;;;;;;5033583;28;20072;-71
2022/01/13 04:03:07;;;;;;;18.02;5.45;;;;;;;;;;5047479;28;20123;-71
2022/01/13 04:05:32;;;;;;;13.87;6.37;;;;;;;;;;5045100;28;20069;-71
2022/01/13 04:07:57;;;;;;;16.33;6.97;;;;;;;;;;5041446;28;20029;-71
2022/01/13 04:10:51;;;;;;;12.43;5.70;;;;;;;;;;5049499;28;20532;-70
2022/01/13 04:13:43;;;;;;;16.27;5.22;;;;;;;;;;5042535;28;20055;-70
2022/01/13 04:16:09;;;;;;;13.43;5.28;;;;;;;;;;5043419;28;20179;-70
2022/01/13 04:18:34;;;;;;;10.38;4.97;;;;;;;;;;5048227;28;20495;-70
2022/01/13 04:21:01;;;;;;;12.20;4.93;;;;;;;;;;5049224;28;20045;-72
2022/01/13 04:23:26;;;;;;;12.93;5.30;;;;;;;;;;5044693;28;20053;-71
2022/01/13 04:25:51;;;;;;;12.20;5.83;;;;;;;;;;5042371;28;20041;-70
2022/01/13 04:28:17;;;;;;;10.23;4.63;;;;;;;;;;5045487;28;20069;-70
2022/01/13 04:30:48;;;;;;;12.93;4.93;;;;;;;;;;5044116;28;20029;-71
2022/01/13 04:33:14;;;;;;;13.77;5.50;;;;;;;;;;5042868;28;20045;-71
2022/01/13 04:35:41;;;;;;;11.73;5.05;;;;;;;;;;5036527;28;20037;-70
2022/01/13 04:38:06;;;;;;;;;;;;;;;;;;5048068;28;20088;-71
2022/01/13 04:40:32;;;;;;;11.38;4.63;;;;;;;;;;5046077;28;19917;-70
2022/01/13 04:42:57;;;;;;;9.37;5.90;;;;;;;;;;5041351;28;20035;-71
2022/01/13 04:45:25;;;;;;;12.90;6.43;;;;;;;;;;5050166;28;20367;-70
2022/01/13 04:47:54;;;;;;;12.50;4.30;;;;;;;;;;5052370;28;20033;-70
2022/01/13 04:50:22;;;;;;;17.58;5.32;;;;;;;;;;5041843;28;20577;-70
2022/01/13 04:52:48;;;;;;;13.15;5.05;;;;;;;;;;5040760;28;20108;-70
2022/01/13 04:55:21;;;;;;;18.93;6.77;;;;;;;;;;5049407;28;20132;-71
2022/01/13 04:57:46;;;;;;;15.88;6.85;;;;;;;;;;5035829;28;20371;-70
2022/01/13 05:00:12;;;;;;;12.87;6.13;;;;;;;;;;5046027;28;20091;-70
2022/01/13 05:02:37;;;;;;;10.65;5.45;;;;;;;;;;5048977;28;20037;-70
2022/01/13 05:05:04;;;;;;;11.60;4.33;;;;;;;;;;5042157;28;20108;-71
2022/01/13 05:07:30;;;;;;;11.00;4.70;;;;;;;;;;5039891;28;20033;-71
2022/01/13 05:09:55;;;;;;;10.15;4.93;;;;;;;;;;5048227;28;20429;-70
2022/01/13 05:12:26;;;;;;;9.57;4.80;;;;;;;;;;5043194;28;20045;-70
2022/01/13 05:14:56;;;;;;;12.70;6.22;;;;;;;;;;5047737;28;20026;-70
2022/01/13 05:20:23;;;;;;;12.40;5.57;;;;;;;;;;5012818;28;20053;-70
2022/01/13 05:22:49;;;;;;;10.23;4.97;;;;;;;;;;5042467;28;20045;-70
2022/01/13 05:25:18;;;;;;;9.77;4.50;;;;;;;;;;5042609;28;20416;-70
2022/01/13 05:27:45;;;;;;;12.52;4.53;;;;;;;;;;5048908;28;20235;-70
2022/01/13 05:30:11;;;;;;;10.48;5.30;;;;;;;;;;5044626;28;20386;-72
2022/01/13 05:32:36;;;;;;;11.95;5.03;;;;;;;;;;5038787;28;20043;-73
2022/01/13 05:35:02;;;;;;;12.93;4.97;;;;;;;;;;5040028;28;20045;-75
2022/01/13 05:37:28;;;;;;;12.65;5.32;;;;;;;;;;5045451;28;20040;-73
2022/01/13 05:39:54;;;;;;;11.65;5.30;;;;;;;;;;5045221;28;20219;-72
2022/01/13 05:42:19;;;;;;;18.07;4.83;;;;;;;;;;5047354;28;20033;-72
2022/01/13 05:44:45;;;;;;;10.50;5.03;;;;;;;;;;5076800;28;20021;-70
2022/01/13 05:47:12;;;;;;;16.63;5.83;;;;;;;;;;5039202;28;20359;-70
2022/01/13 05:49:40;;;;;;;16.40;5.97;;;;;;;;;;5037018;28;20037;-70
2022/01/13 05:52:09;;;;;;;14.68;5.68;;;;;;;;;;5042236;28;20068;-70
2022/01/13 05:54:34;;;;;;;13.25;6.38;;;;;;;;;;5036202;28;20045;-70
2022/01/13 05:56:59;;;;;;;17.97;7.70;;;;;;;;;;5052367;28;20117;-71
2022/01/13 05:59:25;;;;;;;14.57;6.37;;;;;;;;;;5040937;28;20100;-71
2022/01/13 06:01:51;;;;;;;16.80;6.93;;;;;;;;;;5040767;28;20381;-74
2022/01/13 06:04:17;;;;;;;11.10;5.00;;;;;;;;;;5034314;28;20049;-73
2022/01/13 06:06:42;;;;;;;13.93;5.23;;;;;;;;;;5047918;28;20041;-72
2022/01/13 06:09:08;;;;;;;12.20;4.70;;;;;;;;;;5044817;28;20033;-73
2022/01/13 06:11:43;;;;;;;8.20;4.50;;;;;;;;;;5048664;28;20127;-72
2022/01/13 06:14:09;;;;;;;8.60;4.28;;;;;;;;;;5042072;28;20032;-70
2022/01/13 06:16:34;;;;;;;11.13;5.03;;;;;;;;;;5039991;28;20025;-70
2022/01/13 06:19:00;;;;;;;11.73;4.13;;;;;;;;;;5038729;28;20055;-70
2022/01/13 06:21:25;;;;;;;10.50;4.23;;;;;;;;;;5040660;28;20063;-71
2022/01/13 06:23:51;;;;;;;9.80;4.50;;;;;;;;;;5041339;28;20512;-72
2022/01/13 06:26:16;;;;;;;11.90;4.93;;;;;;;;;;5043824;28;20036;-71
2022/01/13 06:28:42;;;;;;;17.37;5.50;;;;;;;;;;5039085;28;20025;-70
2022/01/13 06:31:07;;;;;;;14.07;5.83;;;;;;;;;;5037235;28;20056;-70
2022/01/13 06:33:34;;;;;;;14.60;5.60;;;;;;;;;;5037780;28;20037;-70
2022/01/13 06:35:59;;;;;;;12.25;4.35;;;;;;;;;;5039418;28;20060;-71
2022/01/13 06:38:25;;;;;;;14.13;4.70;;;;;;;;;;5043342;28;20474;-70
2022/01/13 06:40:51;;;;;;;11.40;4.27;;;;;;;;;;5037037;28;20036;-70
2022/01/13 06:43:17;;;;;;;9.65;4.28;;;;;;;;;;5039704;28;20029;-70
2022/01/13 06:45:42;;;;;;;9.10;4.83;;;;;;;;;;5040249;28;20120;-70
2022/01/13 06:48:08;;;;;;;10.37;3.67;;;;;;;;;;5039453;28;20061;-71
2022/01/13 06:50:34;;;;;;;7.20;4.33;;;;;;;;;;5036832;28;20146;-71
2022/01/13 06:53:00;;;;;;;13.90;5.90;;;;;;;;;;5039381;28;20445;-71
2022/01/13 06:55:26;;;;;;;8.93;4.33;;;;;;;;;;5035786;28;20065;-72
2022/01/13 06:57:52;;;;;;;12.27;4.30;;;;;;;;;;5036735;28;20032;-71
2022/01/13 07:00:19;;;;;;;11.50;4.05;;;;;;;;;;5035062;28;20112;-72
2022/01/13 07:02:44;;;;;;;7.63;4.05;;;;;;;;;;5035347;28;20033;-71
2022/01/13 07:05:10;;;;;;;10.30;5.50;;;;;;;;;;5036187;28;20036;-71
2022/01/13 07:07:39;;;;;;;13.30;6.07;;;;;;;;;;5039235;28;20397;-71
2022/01/13 07:10:06;;;;;;;10.40;4.47;;;;;;;;;;5040057;28;20032;-72
2022/01/13 07:12:31;;;;;;;10.45;5.57;;;;;;;;;;5047547;28;20044;-71
2022/01/13 07:14:57;;;;;;;18.03;6.90;;;;;;;;;;5044053;28;20037;-72
2022/01/13 07:17:23;;;;;;;18.00;6.13;;;;;;;;;;5041521;28;20025;-71
2022/01/13 07:19:51;;;;;;;12.87;6.30;;;;;;;;;;5039480;28;20385;-71
2022/01/13 07:22:17;;;;;;;13.63;5.70;;;;;;;;;;5056301;28;20060;-72
2022/01/13 07:24:42;;;;;;;15.40;6.23;;;;;;;;;;5027446;28;20033;-71
2022/01/13 07:27:07;;;;;;;14.47;6.40;;;;;;;;;;5045207;28;20033;-71
2022/01/13 07:29:33;;;;;;;14.33;5.70;;;;;;;;;;5044555;28;20040;-71
2022/01/13 07:31:59;;;;;;;10.83;4.83;;;;;;;;;;5049823;28;20408;-74
2022/01/13 07:34:24;;;;;;;14.15;5.68;;;;;;;;;;5048428;28;20033;-73
2022/01/13 07:36:50;;;;;;;11.27;5.50;;;;;;;;;;5051606;28;20120;-73
2022/01/13 07:39:15;;;;;;;11.53;5.10;;;;;;;;;;5039451;28;20033;-73
2022/01/13 07:41:42;;;;;;;8.07;4.43;;;;;;;;;;5045010;28;20104;-73
2022/01/13 07:44:07;;;;;;;9.60;3.63;;;;;;;;;;5053001;28;20041;-74
2022/01/13 07:46:33;;;;;;;11.40;3.37;;;;;;;;;;5044394;28;20052;-74
2022/01/13 07:48:58;;;;;;;9.50;3.70;;;;;;;;;;5039890;28;20029;-74
2022/01/13 07:51:24;;;;;;;10.00;4.20;;;;;;;;;;5038225;28;20482;-73
2022/01/13 07:53:49;;;;;;;10.37;4.30;;;;;;;;;;5043976;28;20034;-70
2022/01/13 07:56:14;;;;;;;6.33;3.80;;;;;;;;;;5041821;28;20040;-70
2022/01/13 07:58:41;;;;;;;14.30;4.37;;;;;;;;;;5045191;28;20120;-71
2022/01/13 08:01:07;;;;;;;19.85;7.65;;;;;;;;;;5035449;28;20025;-71
2022/01/13 08:03:32;;;;;;;11.07;4.40;;;;;;;;;;5052237;28;20052;-73
2022/01/13 08:05:58;;;;;;;12.37;5.40;;;;;;;;;;5038302;28;20386;-73
2022/01/13 08:08:24;;;;;;;12.65;5.68;;;;;;;;;;5045264;28;20055;-73
2022/01/13 08:10:50;;;;;;;10.20;4.47;;;;;;;;;;5043923;28;20529;-73
2022/01/13 08:13:15;;;;;;;16.00;6.07;;;;;;;;;;5052145;28;20048;-73
2022/01/13 08:15:41;;;;;;;12.70;5.47;;;;;;;;;;5050026;28;20033;-70
2022/01/13 08:20:50;;;;;;;12.32;4.32;;;;;;;;;;5046542;28;20048;-71
2022/01/13 08:23:16;;;;;;;12.03;5.67;;;;;;;;;;5055293;28;20045;-71
2022/01/13 08:25:41;;;;;;;17.17;6.63;;;;;;;;;;5037904;28;20053;-71
2022/01/13 08:28:07;;;;;;;9.30;4.83;;;;;;;;;;5042183;28;20108;-71
2022/01/13 08:30:33;;;;;;;10.63;4.73;;;;;;;;;;5041984;28;20056;-76
2022/01/13 08:32:58;;;;;;;9.27;3.58;;;;;;;;;;5033111;28;20109;-73
2022/01/13 08:35:24;;;;;;;11.33;3.70;;;;;;;;;;5047033;28;20037;-70
2022/01/13 08:37:49;;;;;;;11.03;4.03;;;;;;;;;;5047070;28;20492;-70
2022/01/13 08:40:16;;;;;;;8.77;4.30;;;;;;;;;;5046934;28;20045;-71
2022/01/13 08:42:42;;;;;;;7.68;3.75;;;;;;;;;;5034035;28;20025;-71
2022/01/13 08:45:10;;;;;;;7.40;3.58;;;;;;;;;;5046233;28;20036;-72
2022/01/13 08:47:36;;;;;;;10.20;4.13;;;;;;;;;;5044347;28;20041;-71
2022/01/13 08:50:02;;;;;;;10.00;4.83;;;;;;;;;;5042944;28;20444;-71
2022/01/13 08:52:28;;;;;;;;;;;;;;;;;;5041076;28;20040;-71
2022/01/13 08:54:55;;;;;;;8.73;4.55;;;;;;;;;;5043212;28;19920;-70
2022/01/13 08:57:21;;;;;;;11.57;5.00;;;;;;;;;;5035654;28;20484;-71
2022/01/13 08:59:47;;;;;;;10.68;5.93;;;;;;;;;;5042590;28;20481;-71
2022/01/13 09:02:13;;;;;;;15.10;6.53;;;;;;;;;;5041963;28;20064;-73
2022/01/13 09:04:39;;;;;;;9.80;4.83;;;;;;;;;;5052701;28;20100;-73
2022/01/13 09:07:04;;;;;;;17.90;6.45;;;;;;;;;;5048678;28;20458;-73
2022/01/13 09:09:30;;;;;;;12.23;5.33;;;;;;;;;;5047116;28;20044;-73
2022/01/13 09:11:55;;;;;;;12.43;5.43;;;;;;;;;;5045888;28;20026;-73
2022/01/13 09:14:25;;;;;;;16.27;8.27;;;;;;;;;;5042594;28;20037;-71
2022/01/13 09:16:52;;;;;;;15.23;5.68;;;;;;;;;;5046142;28;20048;-71
2022/01/13 09:19:19;;;;;;;13.25;5.30;;;;;;;;;;5041636;28;20497;-70
2022/01/13 09:21:46;;;;;;;14.27;6.00;;;;;;;;;;5047088;28;20115;-71
2022/01/13 09:24:13;;;;;;;;;;;;;;;;;;5047989;28;20064;-71
2022/01/13 09:26:39;;;;;;;17.05;7.18;;;;;;;;;;5047894;28;19920;-71
2022/01/13 09:29:05;;;;;;;14.13;7.97;;;;;;;;;;5025237;28;20041;-72
2022/01/13 09:31:32;;;;;;;16.77;8.38;;;;;;;;;;5047099;28;20041;-72
2022/01/13 09:33:57;;;;;;;19.92;6.93;;;;;;;;;;5035284;28;20041;-75
2022/01/13 09:36:23;;;;;;;17.50;8.27;;;;;;;;;;5045296;28;20375;-75
2022/01/13 09:38:49;;;;;;;18.13;7.63;;;;;;;;;;5029770;28;20046;-75
2022/01/13 09:41:15;;;;;;;12.10;6.70;;;;;;;;;;5043667;28;20041;-74
2022/01/13 09:43:44;;;;;;;31.63;9.57;;;;;;;;;;5040777;28;20114;-75
2022/01/13 09:46:10;;;;;;;19.20;5.65;;;;;;;;;;5044620;28;20041;-75
2022/01/13 09:48:39;;;;;;;11.75;5.68;;;;;;;;;;5036737;28;20036;-79
2022/01/13 09:51:05;;;;;;;10.35;5.30;;;;;;;;;;5034651;28;20037;-75
2022/01/13 09:53:30;;;;;;;11.23;4.53;;;;;;;;;;5034188;28;20102;-74
2022/01/13 09:55:55;;;;;;;24.13;6.77;;;;;;;;;;5034088;28;20037;-74
2022/01/13 09:58:21;;;;;;;12.20;5.27;;;;;;;;;;5032438;28;20366;-74
2022/01/13 10:00:46;;;;;;;14.47;6.47;;;;;;;;;;5031504;28;20370;-74
2022/01/13 10:03:14;;;;;;;9.50;4.83;;;;;;;;;;5042671;28;20036;-74
2022/01/13 10:05:57;;;;;;;12.05;5.53;;;;;;;;;;5038644;28;20033;-74
2022/01/13 10:08:39;;;;;;;17.05;7.13;;;;;;;;;;5040515;28;20044;-74
2022/01/13 10:11:33;;;;;;;15.60;9.23;;;;;;;;;;5034485;28;20036;-74
2022/01/13 10:16:22;;;;;;;18.50;8.63;;;;;;;;;;5043167;28;20036;-74
2022/01/13 10:17:01;;;;;;;18.13;11.23;;;;;;;;;;5046758;28;20048;-74
2022/01/13 10:19:31;;;;;;;15.45;8.80;;;;;;;;;;5036372;28;20049;-74
2022/01/13 10:21:59;;;;;;;24.67;10.88;;;;;;;;;;5031335;28;20033;-74
2022/01/13 10:24:27;;;;;;;17.55;9.00;;;;;;;;;;5059626;28;20057;-74
2022/01/13 10:27:07;;;;;;;12.95;8.07;;;;;;;;;;5036151;28;20466;-74
2022/01/13 10:29:46;;;;;;;18.67;8.95;;;;;;;;;;5044014;28;20108;-73
2022/01/13 10:32:15;;;;;;;13.40;8.70;;;;;;;;;;5039837;28;20069;-74
2022/01/13 10:34:43;;;;;;;19.63;9.23;;;;;;;;;;5026611;28;20025;-74
2022/01/13 10:37:14;;;;;;;19.45;8.88;;;;;;;;;;5038805;28;20045;-74
2022/01/13 10:39:51;;;;;;;21.10;8.85;;;;;;;;;;5040132;28;20135;-74
2022/01/13 10:43:05;;;;;;;18.35;9.35;;;;;;;;;;5024607;28;20033;-73
2022/01/13 10:45:19;;;;;;;20.75;9.65;;;;;;;;;;5026683;28;20053;-73
2022/01/13 10:48:15;;;;;;;16.27;8.25;;;;;;;;;;5053779;28;20541;-74
2022/01/13 10:50:45;;;;;;;22.92;10.50;;;;;;;;;;5026289;28;20493;-76
2022/01/13 11:02:20;;;;;;;32.30;12.80;;;;;;;;;;4879978;24;20075;-78
2022/01/13 11:04:46;;;;;;;41.55;13.93;;;;;;;;;;4739551;30;20051;-78
2022/01/13 11:07:17;;;;;;;32.15;12.27;;;;;;;;;;4734421;30;20347;-78
2022/01/13 11:09:52;;;;;;;40.00;12.48;;;;;;;;;;4731147;30;20119;-78
2022/01/13 11:12:17;;;;;;;49.75;14.50;;;;;;;;;;4739892;30;20036;-77
2022/01/13 11:14:43;;;;;;;77.20;19.93;;;;;;;;;;4732977;30;20043;-78
2022/01/13 11:17:20;;;;;;;72.40;17.07;;;;;;;;;;4738604;30;20119;-78
2022/01/13 11:19:51;;;;;;;72.53;23.30;;;;;;;;;;4744578;30;20497;-77
2022/01/13 11:22:17;;;;;;;78.18;23.90;;;;;;;;;;4743281;30;20184;-78
2022/01/13 11:24:44;;;;;;;95.33;28.10;;;;;;;;;;4732921;30;20868;-78
2022/01/13 11:27:10;;;;;;;74.93;25.17;;;;;;;;;;4742931;30;20060;-78
2022/01/13 11:29:35;;;;;;;115.72;29.92;;;;;;;;;;4735829;30;20063;-78
2022/01/13 11:32:01;;;;;;;88.03;26.97;;;;;;;;;;4732428;30;20052;-78
2022/01/13 11:34:28;;;;;;;76.37;26.30;;;;;;;;;;4722318;30;20056;-77
2022/01/13 11:36:53;;;;;;;156.65;36.38;;;;;;;;;;4743805;30;20090;-78
2022/01/13 11:39:39;;;;;;;135.10;32.20;;;;;;;;;;4734404;30;20083;-78
2022/01/13 11:42:06;;;;;;;112.47;26.10;;;;;;;;;;4730421;30;20159;-78
2022/01/13 11:44:32;;;;;;;107.60;29.10;;;;;;;;;;4739879;30;20071;-78
2022/01/13 11:46:58;;;;;;;77.40;25.95;;;;;;;;;;4743346;30;20036;-78
2022/01/13 11:50:16;;;;;;;65.20;24.43;;;;;;;;;;4737505;30;20445;-77
2022/01/13 11:52:31;;;;;;;52.88;21.52;;;;;;;;;;4731994;30;20056;-78
2022/01/13 11:54:56;;;;;;;66.68;22.55;;;;;;;;;;4736618;30;20079;-78
2022/01/13 11:57:25;;;;;;;66.20;22.43;;;;;;;;;;4741806;30;20079;-78
2022/01/13 11:59:56;;;;;;;56.15;21.35;;;;;;;;;;4735427;30;20056;-78
2022/01/13 12:02:23;;;;;;;60.45;23.55;;;;;;;;;;4744850;30;20064;-78
2022/01/13 12:05:17;;;;;;;66.88;22.25;;;;;;;;;;4731766;30;20052;-77
2022/01/13 12:07:47;;;;;;;61.92;21.75;;;;;;;;;;4731974;30;20114;-78
2022/01/13 12:10:25;;;;;;;76.57;23.92;;;;;;;;;;4728311;30;20054;-78
2022/01/13 12:12:50;;;;;;;;;;;;;;;;;;4738763;30;20561;-77
2022/01/13 12:15:20;;;;;;;73.93;23.40;;;;;;;;;;4731855;30;20021;-78
2022/01/13 12:17:58;;;;;;;82.78;24.73;;;;;;;;;;4749540;30;20103;-77
2022/01/13 12:20:43;;;;;;;61.58;21.50;;;;;;;;;;4746356;30;20052;-78
2022/01/13 12:23:37;;;;;;;109.07;28.38;;;;;;;;;;4735590;30;20053;-77
2022/01/13 12:26:03;;;;;;;81.22;22.27;;;;;;;;;;4729221;30;20762;-77
2022/01/13 12:28:28;;;;;;;84.65;24.40;;;;;;;;;;4741769;30;20040;-78
2022/01/13 12:30:54;;;;;;;86.70;23.43;;;;;;;;;;4742983;30;20400;-78
2022/01/13 12:33:33;;;;;;;83.43;24.87;;;;;;;;;;4741622;30;20044;-77
2022/01/13 12:35:58;;;;;;;90.93;21.08;;;;;;;;;;4741019;30;20040;-78
2022/01/13 12:38:24;;;;;;;107.53;26.77;;;;;;;;;;4748318;30;20059;-78
2022/01/13 12:41:04;;;;;;;70.47;21.37;;;;;;;;;;4742676;30;20502;-77
2022/01/13 12:43:48;;;;;;;65.28;22.48;;;;;;;;;;4742353;30;20143;-78
2022/01/13 12:46:19;;;;;;;81.93;22.23;;;;;;;;;;4738319;30;20052;-77
2022/01/13 12:48:48;;;;;;;64.95;23.48;;;;;;;;;;4731732;30;20414;-77
2022/01/13 12:51:15;;;;;;;73.05;23.48;;;;;;;;;;4732094;30;20049;-78
2022/01/13 12:53:41;;;;;;;99.00;25.92;;;;;;;;;;4736271;30;20086;-78
2022/01/13 12:56:15;;;;;;;100.57;24.13;;;;;;;;;;4737649;30;20444;-78
2022/01/13 12:58:46;;;;;;;83.70;25.70;;;;;;;;;;4732333;30;20037;-77
2022/01/13 13:01:17;;;;;;;128.98;25.52;;;;;;;;;;4741528;30;20052;-78
2022/01/13 13:03:42;;;;;;;76.78;25.33;;;;;;;;;;4739725;30;20833;-78
2022/01/13 13:06:18;;;;;;;64.23;21.70;;;;;;;;;;4740928;30;20044;-77
2022/01/13 13:08:48;;;;;;;83.93;22.73;;;;;;;;;;4737099;30;20124;-77
2022/01/13 13:11:14;;;;;;;77.65;21.30;;;;;;;;;;4733580;30;20044;-77
2022/01/13 13:13:46;;;;;;;68.37;22.97;;;;;;;;;;4731253;30;20383;-77
2022/01/13 13:16:12;;;;;;;164.68;32.92;;;;;;;;;;4729955;30;20048;-78
2022/01/13 13:18:37;;;;;;;79.77;23.27;;;;;;;;;;4733878;30;20043;-78
2022/01/13 13:21:05;;;;;;;87.13;25.37;;;;;;;;;;4742686;30;20277;-78
2022/01/13 13:23:38;;;;;;;85.38;23.42;;;;;;;;;;4734080;30;20430;-77
2022/01/13 13:26:14;;;;;;;97.60;23.02;;;;;;;;;;4737210;30;20050;-77
2022/01/13 13:28:48;;;;;;;76.07;22.58;;;;;;;;;;4743296;30;20401;-77
2022/01/13 13:31:27;;;;;;;117.68;25.85;;;;;;;;;;4748266;30;20047;-77
2022/01/13 13:34:07;;;;;;;114.25;25.63;;;;;;;;;;4738005;30;20067;-77
2022/01/13 13:36:34;;;;;;;123.45;26.77;;;;;;;;;;4730726;30;20508;-78
2022/01/13 13:39:15;;;;;;;122.35;26.63;;;;;;;;;;4738449;30;20055;-78
2022/01/13 13:41:46;;;;;;;152.93;26.85;;;;;;;;;;4722955;30;20048;-78
2022/01/13 13:44:37;;;;;;;91.50;25.23;;;;;;;;;;4730687;30;20120;-77
2022/01/13 13:47:10;;;;;;;127.03;27.55;;;;;;;;;;4743403;30;20111;-77
2022/01/13 13:49:36;;;;;;;118.10;29.20;;;;;;;;;;4740357;30;20461;-78
2022/01/13 13:52:07;;;;;;;120.25;28.52;;;;;;;;;;4760856;30;20094;-78
2022/01/13 13:54:40;;;;;;;89.75;25.17;;;;;;;;;;4739709;30;20111;-78
2022/01/13 13:57:07;;;;;;;101.38;28.35;;;;;;;;;;4740857;30;20040;-78
2022/01/13 14:00:08;;;;;;;86.88;26.83;;;;;;;;;;4743495;30;20051;-77
2022/01/13 14:02:40;;;;;;;81.20;26.08;;;;;;;;;;4669675;30;20530;-78
2022/01/13 14:05:10;;;;;;;89.20;29.10;;;;;;;;;;4712468;30;20068;-78
2022/01/13 14:07:38;;;;;;;120.35;30.17;;;;;;;;;;4737759;30;20044;-78
2022/01/13 14:10:13;;;;;;;105.63;30.73;;;;;;;;;;4742019;30;20037;-78
2022/01/13 14:12:46;;;;;;;82.90;24.73;;;;;;;;;;4724682;30;20068;-77
2022/01/13 14:15:32;;;;;;;149.45;34.05;;;;;;;;;;4706379;30;20056;-78
2022/01/13 14:18:11;;;;;;;99.65;26.42;;;;;;;;;;4737020;30;20099;-78
2022/01/13 14:20:49;;;;;;;90.30;24.85;;;;;;;;;;4727887;30;20053;-77
2022/01/13 14:23:18;;;;;;;;;;;;;;;;;;4746213;30;20051;-78
2022/01/13 14:25:44;;;;;;;96.22;27.70;;;;;;;;;;4747910;30;19965;-77
2022/01/13 14:28:13;;;;;;;107.18;30.17;;;;;;;;;;4744946;30;20060;-78
2022/01/13 14:30:44;;;;;;;139.43;30.40;;;;;;;;;;4742400;30;20047;-78
2022/01/13 14:33:12;;;;;;;94.30;29.83;;;;;;;;;;4737794;30;20048;-77
2022/01/13 14:35:38;;;;;;;125.63;35.33;;;;;;;;;;4739372;30;20380;-78
2022/01/13 14:38:10;;;;;;;100.47;32.10;;;;;;;;;;4737168;30;20037;-78
2022/01/13 14:40:46;;;;;;;207.48;43.00;;;;;;;;;;4729936;30;20049;-77
2022/01/13 14:43:18;;;;;;;139.32;39.70;;;;;;;;;;4729579;30;20033;-78
2022/01/13 14:46:01;;;;;;;194.95;45.13;;;;;;;;;;4736825;30;20166;-78
2022/01/13 14:48:28;;;;;;;155.63;43.83;;;;;;;;;;4729825;30;20044;-78
2022/01/13 14:51:00;;;;;;;192.93;44.15;;;;;;;;;;4738828;30;20636;-78
2022/01/13 14:53:26;;;;;;;152.18;40.60;;;;;;;;;;4745368;30;20048;-77
2022/01/13 14:55:51;;;;;;;127.30;36.87;;;;;;;;;;4738300;30;20040;-77
2022/01/13 14:58:17;;;;;;;207.60;43.30;;;;;;;;;;4740699;30;20481;-77
2022/01/13 15:00:42;;;;;;;218.60;44.63;;;;;;;;;;4740083;30;20171;-77